KLM682 CYVR-EHAM
Flight info
| Callsign | KLM682 |
|---|---|
| Flight time | N/A |
| Altitude | 39000 |
| Route | DCT JANEK DCT VIDRI DCT WASEN DCT 53N110W 55N100W 5630N09000W 5730N08000W 5830N07000W DCT FASSA DCT SINGA/M085F370 DCT SAVRY DCT 59N050W/M085F390 58N040W 5630N03000W 55N020W DCT RESNO/N0484F390 DCT NETKI DCT NIBOG DCT BELOX L603 LAMSO LAMSO2A |
| Aircraft | B78X/H-SDE1E2E3FGHIJ2J3J4J5M1RWXY/LB1D1 |
Departure
| Time | N/A |
|---|---|
| Airport | Vancouver International Airport (CYVR) |
Arrival
| Time | 2026-05-06 19:23 |
|---|---|
| Airport | Amsterdam Airport Schiphol (EHAM) |
| Time | Latitude | Longitude | Altitude | Speed | Heading |
|---|---|---|---|---|---|
| 2026-05-06 18:30 | 54.18819 | -5.02865 | 39013 ft | 443 kts | 107° |
| 2026-05-06 18:30 | 54.17880 | -4.97858 | 39017 ft | 443 kts | 107° |
| 2026-05-06 18:31 | 54.15997 | -4.87865 | 39017 ft | 442 kts | 107° |
| 2026-05-06 18:31 | 54.14078 | -4.77730 | 39032 ft | 457 kts | 108° |
| 2026-05-06 18:32 | 54.12075 | -4.67214 | 39039 ft | 476 kts | 108° |
| 2026-05-06 18:32 | 54.09982 | -4.56283 | 39035 ft | 493 kts | 108° |
| 2026-05-06 18:33 | 54.07809 | -4.45005 | 39032 ft | 507 kts | 108° |
| 2026-05-06 18:33 | 54.05615 | -4.33683 | 39028 ft | 507 kts | 108° |
| 2026-05-06 18:34 | 54.03389 | -4.22263 | 39025 ft | 508 kts | 108° |
| 2026-05-06 18:34 | 54.01155 | -4.10869 | 39024 ft | 507 kts | 108° |
| 2026-05-06 18:35 | 53.98910 | -3.99484 | 39019 ft | 508 kts | 108° |
| 2026-05-06 18:35 | 53.96656 | -3.88121 | 39020 ft | 508 kts | 108° |
| 2026-05-06 18:36 | 53.94385 | -3.76743 | 39019 ft | 509 kts | 109° |
| 2026-05-06 18:36 | 53.92118 | -3.65448 | 39021 ft | 509 kts | 109° |
| 2026-05-06 18:37 | 53.90198 | -3.55928 | 39022 ft | 509 kts | 109° |
| 2026-05-06 18:37 | 53.87395 | -3.42790 | 39023 ft | 509 kts | 110° |
| 2026-05-06 18:38 | 53.85005 | -3.31512 | 39026 ft | 509 kts | 110° |
| 2026-05-06 18:38 | 53.82503 | -3.20311 | 39030 ft | 508 kts | 110° |
| 2026-05-06 18:39 | 53.80046 | -3.09091 | 39030 ft | 509 kts | 110° |
| 2026-05-06 18:40 | 53.76304 | -2.92312 | 39031 ft | 508 kts | 111° |
| 2026-05-06 18:40 | 53.73810 | -2.81147 | 39027 ft | 506 kts | 111° |
| 2026-05-06 18:41 | 53.71306 | -2.70040 | 39025 ft | 507 kts | 111° |
| 2026-05-06 18:41 | 53.68806 | -2.58981 | 39025 ft | 507 kts | 111° |
| 2026-05-06 18:42 | 53.66276 | -2.47863 | 39022 ft | 507 kts | 111° |
| 2026-05-06 18:42 | 53.63744 | -2.36787 | 39024 ft | 507 kts | 111° |
| 2026-05-06 18:43 | 53.61198 | -2.25714 | 39024 ft | 507 kts | 111° |
| 2026-05-06 18:43 | 53.59061 | -2.16459 | 39027 ft | 506 kts | 111° |
| 2026-05-06 18:44 | 53.56511 | -2.05474 | 39030 ft | 507 kts | 111° |
| 2026-05-06 18:44 | 53.53935 | -1.94429 | 39032 ft | 507 kts | 111° |
| 2026-05-06 18:45 | 53.51664 | -1.83227 | 39034 ft | 508 kts | 106° |
| 2026-05-06 18:45 | 53.49662 | -1.71814 | 39049 ft | 508 kts | 107° |
| 2026-05-06 18:46 | 53.47647 | -1.60457 | 39053 ft | 508 kts | 107° |
| 2026-05-06 18:46 | 53.45618 | -1.49091 | 39053 ft | 508 kts | 107° |
| 2026-05-06 18:47 | 53.43567 | -1.37710 | 39057 ft | 509 kts | 107° |
| 2026-05-06 18:47 | 53.41513 | -1.26362 | 39060 ft | 509 kts | 107° |
| 2026-05-06 18:48 | 53.39449 | -1.15001 | 39065 ft | 509 kts | 107° |
| 2026-05-06 18:48 | 53.37388 | -1.03758 | 39060 ft | 508 kts | 107° |
| 2026-05-06 18:49 | 53.35307 | -0.92454 | 39056 ft | 508 kts | 107° |
| 2026-05-06 18:49 | 53.33212 | -0.81157 | 39056 ft | 507 kts | 108° |
| 2026-05-06 18:50 | 53.31114 | -0.69902 | 39049 ft | 507 kts | 108° |
| 2026-05-06 18:50 | 53.29000 | -0.58636 | 39049 ft | 507 kts | 108° |
| 2026-05-06 18:51 | 53.26895 | -0.47476 | 39049 ft | 507 kts | 108° |
| 2026-05-06 18:51 | 53.24764 | -0.36249 | 39046 ft | 506 kts | 108° |
| 2026-05-06 18:52 | 53.22626 | -0.25053 | 39045 ft | 507 kts | 108° |
| 2026-05-06 18:52 | 53.20471 | -0.13833 | 39046 ft | 507 kts | 108° |
| 2026-05-06 18:53 | 53.18302 | -0.02609 | 39049 ft | 508 kts | 108° |
| 2026-05-06 18:53 | 53.16334 | 0.07518 | 39044 ft | 507 kts | 108° |
| 2026-05-06 18:54 | 53.14165 | 0.18622 | 39043 ft | 507 kts | 108° |
| 2026-05-06 18:54 | 53.11973 | 0.29772 | 39040 ft | 507 kts | 109° |
| 2026-05-06 18:55 | 53.09762 | 0.40958 | 39032 ft | 508 kts | 109° |
| 2026-05-06 18:55 | 53.07543 | 0.52122 | 39033 ft | 508 kts | 109° |
| 2026-05-06 18:56 | 53.05315 | 0.63262 | 39024 ft | 508 kts | 109° |
| 2026-05-06 18:56 | 53.03075 | 0.74407 | 39022 ft | 507 kts | 109° |
| 2026-05-06 18:57 | 53.00828 | 0.85518 | 39017 ft | 506 kts | 109° |
| 2026-05-06 18:57 | 52.98576 | 0.96589 | 39016 ft | 507 kts | 109° |
| 2026-05-06 18:58 | 52.96966 | 1.07896 | 39036 ft | 509 kts | 101° |
| 2026-05-06 18:58 | 52.95636 | 1.19428 | 39030 ft | 508 kts | 101° |
| 2026-05-06 18:59 | 52.94295 | 1.30940 | 39027 ft | 508 kts | 102° |
| 2026-05-06 18:59 | 52.92945 | 1.42428 | 39015 ft | 507 kts | 102° |
| 2026-05-06 18:59 | 52.92269 | 1.48148 | 38805 ft | 506 kts | 102° |
| 2026-05-06 19:00 | 52.91589 | 1.53870 | 38494 ft | 506 kts | 102° |
| 2026-05-06 19:00 | 52.90904 | 1.59603 | 38159 ft | 507 kts | 102° |
| 2026-05-06 19:00 | 52.90219 | 1.65322 | 37843 ft | 507 kts | 102° |
| 2026-05-06 19:00 | 52.89530 | 1.71053 | 37522 ft | 507 kts | 102° |
| 2026-05-06 19:01 | 52.88846 | 1.76707 | 37199 ft | 507 kts | 102° |
| 2026-05-06 19:01 | 52.88151 | 1.82433 | 36861 ft | 508 kts | 102° |
| 2026-05-06 19:01 | 52.87451 | 1.88171 | 36524 ft | 508 kts | 102° |
| 2026-05-06 19:01 | 52.86749 | 1.93907 | 36006 ft | 509 kts | 102° |
| 2026-05-06 19:02 | 52.86042 | 1.99654 | 35285 ft | 509 kts | 103° |
| 2026-05-06 19:02 | 52.85334 | 2.05392 | 34535 ft | 509 kts | 103° |
| 2026-05-06 19:02 | 52.84622 | 2.11130 | 33741 ft | 509 kts | 103° |
| 2026-05-06 19:02 | 52.83909 | 2.16857 | 32940 ft | 507 kts | 103° |
| 2026-05-06 19:03 | 52.83195 | 2.22564 | 32111 ft | 505 kts | 103° |
| 2026-05-06 19:03 | 52.82481 | 2.28254 | 31242 ft | 505 kts | 103° |
| 2026-05-06 19:03 | 52.81765 | 2.33928 | 30362 ft | 506 kts | 103° |
| 2026-05-06 19:03 | 52.81050 | 2.39573 | 29417 ft | 506 kts | 103° |
| 2026-05-06 19:04 | 52.80329 | 2.45247 | 28534 ft | 502 kts | 103° |
| 2026-05-06 19:04 | 52.79612 | 2.50868 | 27678 ft | 498 kts | 103° |
| 2026-05-06 19:04 | 52.78895 | 2.56463 | 26832 ft | 494 kts | 103° |
| 2026-05-06 19:04 | 52.78182 | 2.62003 | 25993 ft | 491 kts | 103° |
| 2026-05-06 19:05 | 52.77471 | 2.67504 | 25167 ft | 488 kts | 103° |
| 2026-05-06 19:05 | 52.76767 | 2.72934 | 24347 ft | 481 kts | 103° |
| 2026-05-06 19:05 | 52.76069 | 2.78295 | 23995 ft | 469 kts | 103° |
| 2026-05-06 19:05 | 52.75525 | 2.82462 | 24000 ft | 461 kts | 103° |
| 2026-05-06 19:06 | 52.74831 | 2.87744 | 24005 ft | 467 kts | 103° |
| 2026-05-06 19:06 | 52.74155 | 2.92882 | 23758 ft | 460 kts | 103° |
| 2026-05-06 19:06 | 52.73417 | 2.97994 | 23044 ft | 456 kts | 109° |
| 2026-05-06 19:06 | 52.72188 | 3.02781 | 22249 ft | 451 kts | 115° |
| 2026-05-06 19:07 | 52.71109 | 3.07615 | 21493 ft | 449 kts | 109° |
| 2026-05-06 19:07 | 52.70236 | 3.12534 | 20772 ft | 445 kts | 106° |
| 2026-05-06 19:07 | 52.69384 | 3.17400 | 20076 ft | 440 kts | 109° |
| 2026-05-06 19:07 | 52.68373 | 3.22142 | 19386 ft | 435 kts | 111° |
| 2026-05-06 19:08 | 52.67323 | 3.26797 | 18704 ft | 432 kts | 111° |
| 2026-05-06 19:08 | 52.66353 | 3.31455 | 18006 ft | 428 kts | 109° |
| 2026-05-06 19:08 | 52.65428 | 3.36088 | 17257 ft | 424 kts | 109° |
| 2026-05-06 19:08 | 52.64477 | 3.40667 | 16530 ft | 420 kts | 110° |
| 2026-05-06 19:09 | 52.63514 | 3.45164 | 15821 ft | 415 kts | 110° |
| 2026-05-06 19:09 | 52.62570 | 3.49625 | 15271 ft | 410 kts | 109° |
| 2026-05-06 19:09 | 52.61642 | 3.54069 | 14761 ft | 410 kts | 109° |
| 2026-05-06 19:09 | 52.60718 | 3.58468 | 14239 ft | 405 kts | 109° |
| 2026-05-06 19:10 | 52.59790 | 3.62839 | 13694 ft | 402 kts | 109° |
| 2026-05-06 19:10 | 52.58873 | 3.67152 | 13056 ft | 396 kts | 109° |
| 2026-05-06 19:10 | 52.57983 | 3.71348 | 12468 ft | 392 kts | 109° |
| 2026-05-06 19:10 | 52.57090 | 3.75547 | 11849 ft | 387 kts | 109° |
| 2026-05-06 19:11 | 52.56208 | 3.79684 | 11213 ft | 380 kts | 109° |
| 2026-05-06 19:11 | 52.55339 | 3.83747 | 10587 ft | 373 kts | 109° |
| 2026-05-06 19:11 | 52.54485 | 3.87731 | 9961 ft | 367 kts | 109° |
| 2026-05-06 19:11 | 52.53646 | 3.91641 | 9321 ft | 360 kts | 109° |
| 2026-05-06 19:12 | 52.52789 | 3.95472 | 8643 ft | 354 kts | 113° |
| 2026-05-06 19:12 | 52.51414 | 3.98742 | 8128 ft | 345 kts | 131° |
| 2026-05-06 19:12 | 52.49816 | 4.01609 | 7722 ft | 333 kts | 132° |
| 2026-05-06 19:12 | 52.48245 | 4.04301 | 7356 ft | 321 kts | 132° |
| 2026-05-06 19:13 | 52.46730 | 4.06916 | 7010 ft | 310 kts | 131° |
| 2026-05-06 19:13 | 52.45304 | 4.09425 | 6920 ft | 291 kts | 130° |
| 2026-05-06 19:13 | 52.43945 | 4.11818 | 6634 ft | 282 kts | 130° |
| 2026-05-06 19:13 | 52.42619 | 4.14132 | 6334 ft | 274 kts | 131° |
| 2026-05-06 19:14 | 52.41330 | 4.16374 | 6035 ft | 267 kts | 130° |
| 2026-05-06 19:14 | 52.40072 | 4.18567 | 5717 ft | 260 kts | 130° |
| 2026-05-06 19:14 | 52.38842 | 4.20711 | 5405 ft | 257 kts | 130° |
| 2026-05-06 19:14 | 52.37619 | 4.22837 | 5110 ft | 256 kts | 130° |
| 2026-05-06 19:15 | 52.36402 | 4.24957 | 4819 ft | 255 kts | 130° |
| 2026-05-06 19:15 | 52.35212 | 4.27023 | 4524 ft | 253 kts | 130° |
| 2026-05-06 19:15 | 52.34011 | 4.29109 | 4236 ft | 251 kts | 130° |
| 2026-05-06 19:15 | 52.32816 | 4.31185 | 3945 ft | 250 kts | 130° |
| 2026-05-06 19:16 | 52.31637 | 4.33223 | 3687 ft | 242 kts | 130° |
| 2026-05-06 19:16 | 52.30489 | 4.35208 | 3468 ft | 239 kts | 129° |
| 2026-05-06 19:16 | 52.29365 | 4.37153 | 3270 ft | 233 kts | 129° |
| 2026-05-06 19:16 | 52.28248 | 4.39084 | 3095 ft | 232 kts | 129° |
| 2026-05-06 19:17 | 52.27162 | 4.40956 | 2931 ft | 221 kts | 129° |
| 2026-05-06 19:17 | 52.26134 | 4.42733 | 2774 ft | 217 kts | 129° |
| 2026-05-06 19:17 | 52.25157 | 4.44420 | 2596 ft | 214 kts | 129° |
| 2026-05-06 19:17 | 52.24142 | 4.46169 | 2431 ft | 208 kts | 129° |
| 2026-05-06 19:18 | 52.23157 | 4.47862 | 2251 ft | 205 kts | 129° |
| 2026-05-06 19:18 | 52.22185 | 4.49555 | 2060 ft | 204 kts | 127° |
| 2026-05-06 19:18 | 52.21673 | 4.51585 | 1983 ft | 191 kts | 96° |
| 2026-05-06 19:18 | 52.21531 | 4.53658 | 1993 ft | 175 kts | 91° |
| 2026-05-06 19:19 | 52.21780 | 4.55526 | 1941 ft | 166 kts | 54° |
| 2026-05-06 19:19 | 52.22545 | 4.56965 | 1976 ft | 172 kts | 56° |
| 2026-05-06 19:19 | 52.23077 | 4.58598 | 1982 ft | 161 kts | 57° |
| 2026-05-06 19:19 | 52.23658 | 4.60053 | 1979 ft | 147 kts | 56° |
| 2026-05-06 19:20 | 52.24199 | 4.61485 | 1785 ft | 145 kts | 57° |
| 2026-05-06 19:20 | 52.24726 | 4.62868 | 1583 ft | 138 kts | 56° |
| 2026-05-06 19:20 | 52.25236 | 4.64188 | 1403 ft | 139 kts | 55° |
| 2026-05-06 19:20 | 52.25745 | 4.65503 | 1205 ft | 136 kts | 56° |
| 2026-05-06 19:21 | 52.26241 | 4.66796 | 1031 ft | 134 kts | 56° |
| 2026-05-06 19:21 | 52.26738 | 4.68091 | 836 ft | 138 kts | 56° |
| 2026-05-06 19:21 | 52.27242 | 4.69403 | 650 ft | 139 kts | 54° |
| 2026-05-06 19:21 | 52.27768 | 4.70749 | 455 ft | 135 kts | 55° |
| 2026-05-06 19:22 | 52.28271 | 4.72087 | 270 ft | 139 kts | 54° |
| 2026-05-06 19:22 | 52.28788 | 4.73413 | 94 ft | 137 kts | 54° |
| 2026-05-06 19:22 | 52.29271 | 4.74663 | 7 ft | 114 kts | 58° |
| 2026-05-06 19:22 | 52.29584 | 4.75489 | 4 ft | 52 kts | 58° |
| 2026-05-06 19:23 | 52.29737 | 4.75765 | 4 ft | 23 kts | 30° |
| 2026-05-06 19:23 | 52.29827 | 4.75843 | 4 ft | 5 kts | 28° |
| 2026-05-06 19:23 | 52.29857 | 4.75869 | 4 ft | 4 kts | 28° |
| 2026-05-06 19:23 | 52.29875 | 4.75884 | 5 ft | 3 kts | 27° |
| 2026-05-06 19:24 | 52.29897 | 4.75903 | 5 ft | 5 kts | 27° |
| 2026-05-06 19:24 | 52.29934 | 4.75934 | 5 ft | 7 kts | 27° |
| 2026-05-06 19:24 | 52.29987 | 4.75992 | 5 ft | 11 kts | 42° |
| 2026-05-06 19:24 | 52.30040 | 4.76111 | 5 ft | 14 kts | 58° |
| 2026-05-06 19:25 | 52.30096 | 4.76258 | 5 ft | 16 kts | 58° |
| 2026-05-06 19:25 | 52.30159 | 4.76421 | 5 ft | 18 kts | 59° |
| 2026-05-06 19:25 | 52.30226 | 4.76598 | 5 ft | 19 kts | 57° |
| 2026-05-06 19:25 | 52.30294 | 4.76777 | 5 ft | 20 kts | 57° |
| 2026-05-06 19:26 | 52.30358 | 4.76945 | 5 ft | 14 kts | 58° |
| 2026-05-06 19:26 | 52.30430 | 4.77035 | 5 ft | 12 kts | 2° |
| 2026-05-06 19:26 | 52.30502 | 4.76977 | 5 ft | 12 kts | 328° |
| 2026-05-06 19:26 | 52.30576 | 4.76888 | 5 ft | 14 kts | 314° |
| 2026-05-06 19:27 | 52.30635 | 4.76777 | 5 ft | 11 kts | 317° |
| 2026-05-06 19:27 | 52.30691 | 4.76748 | 5 ft | 8 kts | 3° |
| 2026-05-06 19:27 | 52.30742 | 4.76746 | 5 ft | 6 kts | 351° |
| 2026-05-06 19:27 | 52.30774 | 4.76728 | 5 ft | 4 kts | 341° |
| 2026-05-06 19:28 | 52.30790 | 4.76719 | 5 ft | 2 kts | 341° |
| 2026-05-06 19:28 | 52.30800 | 4.76713 | 5 ft | 1 kts | 341° |
| 2026-05-06 19:28 | 52.30803 | 4.76711 | 5 ft | 0 kts | 341° |